createdAt,value
2022-10-17T00:00:40.851Z,101607.06
2022-10-17T00:03:09.069Z,101605.38
2022-10-17T00:05:40.813Z,101612.47
2022-10-17T00:08:08.903Z,101618.66
2022-10-17T00:10:37.316Z,101632.84
2022-10-17T00:13:06.174Z,101626.56
2022-10-17T00:15:35.936Z,101641.66
2022-10-17T00:18:04.149Z,101636.31
2022-10-17T00:20:32.890Z,101639.78
2022-10-17T00:23:00.839Z,101643.34
2022-10-17T00:25:28.877Z,101621.94
2022-10-17T00:27:56.843Z,101615.75
2022-10-17T00:30:24.816Z,101628.19
2022-10-17T00:32:54.096Z,101631.78
2022-10-17T00:35:22.568Z,101644.13
2022-10-17T00:37:50.606Z,101648.53
2022-10-17T00:40:18.977Z,101643.19
2022-10-17T00:42:46.936Z,101644.13
2022-10-17T00:45:19.782Z,101645.88
2022-10-17T00:47:52.240Z,101647.69
2022-10-17T00:50:22.080Z,101649.44
2022-10-17T00:52:50.428Z,101647.72
2022-10-17T00:55:21.346Z,101650.47
2022-10-17T00:57:49.706Z,101638.16
2022-10-17T01:00:18.612Z,101654.94
2022-10-17T01:02:46.621Z,101640.69
2022-10-17T01:05:16.281Z,101640.66
2022-10-17T01:07:46.916Z,101637.97
2022-10-17T01:10:16.006Z,101652.16
2022-10-17T01:12:56.520Z,101652.13
2022-10-17T01:15:37.026Z,101649.34
2022-10-17T01:18:17.167Z,101654.59
2022-10-17T01:21:31.511Z,101657.28
2022-10-17T01:24:33.032Z,101660.81
2022-10-17T01:27:30.478Z,101651.84
2022-10-17T01:30:11.616Z,101641.22
2022-10-17T01:32:48.914Z,101643.88
2022-10-17T01:35:23.434Z,101645.66
2022-10-17T01:37:57.136Z,101648.38
2022-10-17T01:40:29.165Z,101647.50
2022-10-17T01:43:01.425Z,101642.19
2022-10-17T01:45:34.953Z,101636.81
2022-10-17T01:48:08.655Z,101635.06
2022-10-17T01:50:42.457Z,101637.75
2022-10-17T01:53:15.442Z,101633.19
2022-10-17T01:55:46.940Z,101617.06
2022-10-17T01:58:20.367Z,101615.16
2022-10-17T02:00:51.375Z,101605.38
2022-10-17T02:03:22.657Z,101607.03
2022-10-17T02:05:50.601Z,101614.13
2022-10-17T02:08:27.303Z,101604.34
2022-10-17T02:11:01.566Z,101593.59
2022-10-17T02:13:43.296Z,101597.06
2022-10-17T02:16:21.993Z,101586.34
2022-10-17T02:19:16.413Z,101580.03
2022-10-17T02:21:51.605Z,101581.00
2022-10-17T02:24:26.731Z,101575.59
2022-10-17T02:27:01.239Z,101582.69
2022-10-17T02:29:34.492Z,101573.06
2022-10-17T02:32:08.142Z,101583.59
2022-10-17T02:34:41.843Z,101572.81
2022-10-17T02:37:12.752Z,101578.16
2022-10-17T02:39:41.716Z,101575.44
2022-10-17T02:42:13.444Z,101577.25
2022-10-17T02:44:44.912Z,101572.84
2022-10-17T02:47:19.224Z,101569.25
2022-10-17T02:49:52.529Z,101562.06
2022-10-17T02:52:26.111Z,101570.06
2022-10-17T02:55:00.525Z,101562.88
2022-10-17T02:57:35.381Z,101562.91
2022-10-17T03:00:06.169Z,101555.78
2022-10-17T03:02:40.987Z,101548.72
2022-10-17T03:05:11.564Z,101546.03
2022-10-17T03:07:39.550Z,101546.91
2022-10-17T03:10:08.471Z,101554.91
2022-10-17T03:12:36.387Z,101542.34
2022-10-17T03:15:05.421Z,101537.03
2022-10-17T03:17:34.136Z,101527.16
2022-10-17T03:20:02.060Z,101529.69
2022-10-17T03:22:31.795Z,101541.31
2022-10-17T03:25:00.135Z,101535.91
2022-10-17T03:27:28.404Z,101528.59
2022-10-17T03:29:56.808Z,101527.78
2022-10-17T03:32:24.790Z,101531.38
2022-10-17T03:34:52.705Z,101531.25
2022-10-17T03:37:20.692Z,101527.75
2022-10-17T03:39:49.998Z,101533.16
2022-10-17T03:42:18.016Z,101530.47
2022-10-17T03:44:45.962Z,101525.25
2022-10-17T03:47:14.391Z,101526.28
2022-10-17T03:49:42.721Z,101526.34
2022-10-17T03:52:13.136Z,101527.25
2022-10-17T03:54:41.140Z,101524.66
2022-10-17T03:57:10.421Z,101533.53
2022-10-17T03:59:38.364Z,101530.97
2022-10-17T04:02:06.339Z,101530.94
2022-10-17T04:04:34.281Z,101530.94
2022-10-17T04:07:02.305Z,101528.31
2022-10-17T04:09:30.392Z,101532.66
2022-10-17T04:11:58.336Z,101527.41
2022-10-17T04:14:27.969Z,101532.75
2022-10-17T04:16:55.960Z,101524.63
2022-10-17T04:19:23.878Z,101528.19
2022-10-17T04:21:51.836Z,101516.47
2022-10-17T04:24:19.937Z,101513.78
2022-10-17T04:26:50.831Z,101519.19
2022-10-17T04:29:19.212Z,101524.44
2022-10-17T04:31:49.805Z,101528.81
2022-10-17T04:34:17.996Z,101516.31
2022-10-17T04:36:47.181Z,101524.44
2022-10-17T04:39:15.125Z,101529.88
2022-10-17T04:41:43.045Z,101524.66
2022-10-17T04:44:11.694Z,101517.53
2022-10-17T04:46:39.909Z,101509.47
2022-10-17T04:49:09.874Z,101503.84
2022-10-17T04:51:39.076Z,101504.00
2022-10-17T04:54:07.109Z,101504.91
2022-10-17T04:56:35.165Z,101503.34
2022-10-17T04:59:03.109Z,101494.56
2022-10-17T05:01:31.092Z,101504.50
2022-10-17T05:03:59.061Z,101493.03
2022-10-17T05:06:29.010Z,101493.16
2022-10-17T05:08:57.459Z,101496.72
2022-10-17T05:11:27.543Z,101486.91
2022-10-17T05:13:56.964Z,101490.09
2022-10-17T05:16:26.442Z,101483.91
2022-10-17T05:18:56.373Z,101486.56
2022-10-17T05:21:26.057Z,101481.28
2022-10-17T05:23:55.885Z,101478.31
2022-10-17T05:26:24.766Z,101477.72
2022-10-17T05:28:53.169Z,101484.88
2022-10-17T05:31:21.259Z,101476.88
2022-10-17T05:33:49.275Z,101477.81
2022-10-17T05:36:17.396Z,101474.44
2022-10-17T05:38:45.354Z,101478.94
2022-10-17T05:41:14.672Z,101479.03
2022-10-17T05:43:42.717Z,101486.25
2022-10-17T05:46:11.366Z,101472.97
2022-10-17T05:48:39.306Z,101480.06
2022-10-17T05:51:10.646Z,101481.00
2022-10-17T05:53:40.795Z,101468.66
2022-10-17T05:56:10.813Z,101475.88
2022-10-17T05:58:50.373Z,101474.13
2022-10-17T06:01:19.579Z,101475.00
2022-10-17T06:03:47.565Z,101469.72
2022-10-17T06:06:16.453Z,101466.22
2022-10-17T06:08:44.974Z,101474.19
2022-10-17T06:11:13.850Z,101477.72
2022-10-17T06:13:43.375Z,101475.00
2022-10-17T06:16:11.376Z,101481.19
2022-10-17T06:18:39.493Z,101480.19
2022-10-17T06:21:09.505Z,101480.13
2022-10-17T06:23:37.805Z,101477.44
2022-10-17T06:26:07.069Z,101462.16
2022-10-17T06:28:35.517Z,101467.44
2022-10-17T06:31:07.639Z,101466.34
2022-10-17T06:33:35.993Z,101465.41
2022-10-17T06:36:04.916Z,101466.22
2022-10-17T06:38:32.909Z,101472.38
2022-10-17T06:41:07.848Z,101474.06
2022-10-17T06:43:35.941Z,101473.97
2022-10-17T06:46:04.132Z,101472.06
2022-10-17T06:48:33.706Z,101479.00
2022-10-17T06:51:02.143Z,101461.19
2022-10-17T06:53:30.585Z,101474.31
2022-10-17T06:56:02.890Z,101476.06
2022-10-17T06:58:31.851Z,101474.13
2022-10-17T07:01:01.316Z,101484.56
2022-10-17T07:03:30.420Z,101482.50
2022-10-17T07:06:00.321Z,101473.34
2022-10-17T07:08:28.700Z,101477.50
2022-10-17T07:10:57.415Z,101476.41
2022-10-17T07:13:25.572Z,101468.28
2022-10-17T07:18:26.281Z,101477.59
2022-10-17T07:20:55.180Z,101487.19
2022-10-17T07:23:25.209Z,101482.41
2022-10-17T07:25:53.412Z,101496.53
2022-10-17T07:28:21.407Z,101493.56
2022-10-17T07:30:52.063Z,101480.78
2022-10-17T07:33:22.696Z,101484.06
2022-10-17T07:35:52.636Z,101477.53
2022-10-17T07:38:20.610Z,101471.00
2022-10-17T07:40:57.036Z,101484.22
2022-10-17T07:43:25.916Z,101490.28
2022-10-17T07:45:54.694Z,101491.78
2022-10-17T07:48:24.581Z,101496.13
2022-10-17T07:50:52.843Z,101489.72
2022-10-17T07:53:20.788Z,101493.09
2022-10-17T07:55:49.739Z,101496.44
2022-10-17T07:58:19.634Z,101503.38
2022-10-17T08:00:48.997Z,101509.88
2022-10-17T08:03:17.086Z,101512.16
2022-10-17T08:05:45.088Z,101496.44
2022-10-17T08:08:13.079Z,101484.97
2022-10-17T08:10:41.139Z,101500.50
2022-10-17T08:13:09.282Z,101504.84
2022-10-17T08:15:39.793Z,101502.09
2022-10-17T08:18:07.786Z,101491.19
2022-10-17T08:20:35.808Z,101487.50
2022-10-17T08:23:03.785Z,101485.53
2022-10-17T08:25:32.102Z,101479.19
2022-10-17T08:28:00.179Z,101482.56
2022-10-17T08:30:30.555Z,101472.41
2022-10-17T08:33:00.034Z,101461.41
2022-10-17T08:35:28.099Z,101461.00
2022-10-17T08:37:56.106Z,101458.88
2022-10-17T08:40:27.481Z,101452.38
2022-10-17T08:43:22.864Z,101458.19
2022-10-17T08:45:55.436Z,101450.56
2022-10-17T08:48:26.908Z,101449.53
2022-10-17T08:50:59.217Z,101448.03
2022-10-17T08:53:32.945Z,101454.03
2022-10-17T08:56:11.911Z,101451.88
2022-10-17T08:58:43.229Z,101445.28
2022-10-17T09:01:30.900Z,101446.78
2022-10-17T09:04:28.208Z,101458.09
2022-10-17T09:07:02.902Z,101461.50
2022-10-17T09:09:38.333Z,101464.69
2022-10-17T09:12:16.328Z,101459.06
2022-10-17T09:15:10.430Z,101467.56
2022-10-17T09:17:49.691Z,101470.84
2022-10-17T09:20:22.512Z,101469.75
2022-10-17T09:25:33.141Z,101457.97
2022-10-17T09:28:12.260Z,101463.91
2022-10-17T09:30:45.563Z,101466.38
2022-10-17T09:33:28.309Z,101463.41
2022-10-17T09:36:10.036Z,101476.47
2022-10-17T09:38:41.462Z,101480.63
2022-10-17T09:41:43.471Z,101479.94
2022-10-17T09:44:17.799Z,101475.22
2022-10-17T09:46:58.765Z,101460.41
2022-10-17T09:49:32.662Z,101460.34
2022-10-17T09:52:04.262Z,101468.88
2022-10-17T09:54:42.455Z,101470.09
2022-10-17T09:57:12.468Z,101462.63
2022-10-17T09:59:42.986Z,101465.13
2022-10-17T10:02:23.145Z,101458.53
2022-10-17T10:05:05.640Z,101461.22
2022-10-17T10:07:38.783Z,101467.28
2022-10-17T10:10:09.729Z,101466.19
2022-10-17T10:12:39.649Z,101472.00
2022-10-17T10:15:35.257Z,101469.78
2022-10-17T10:18:03.663Z,101471.25
2022-10-17T10:20:35.540Z,101460.34
2022-10-17T10:23:21.251Z,101472.84
2022-10-17T10:25:57.954Z,101477.06
2022-10-17T10:28:29.183Z,101483.28
2022-10-17T10:33:49.432Z,101481.94
2022-10-17T10:36:21.847Z,101490.72
2022-10-17T10:38:56.132Z,101481.28
2022-10-17T10:41:27.671Z,101480.31
2022-10-17T10:43:57.191Z,101468.56
2022-10-17T10:46:27.349Z,101472.78
2022-10-17T10:48:58.568Z,101459.97
2022-10-17T10:51:31.989Z,101470.28
2022-10-17T10:54:07.569Z,101478.78
2022-10-17T10:56:39.769Z,101475.59
2022-10-17T10:59:18.723Z,101478.13
2022-10-17T11:01:53.382Z,101463.66
2022-10-17T11:04:29.248Z,101473.13
2022-10-17T11:07:03.243Z,101475.81
2022-10-17T11:09:46.273Z,101493.94
2022-10-17T11:12:21.834Z,101489.34
2022-10-17T11:14:56.031Z,101490.63
2022-10-17T11:17:33.661Z,101469.31
2022-10-17T11:20:11.487Z,101482.56
2022-10-17T11:22:43.407Z,101490.69
2022-10-17T11:25:24.047Z,101502.13
2022-10-17T11:27:52.040Z,101497.59
2022-10-17T11:30:20.325Z,101495.69
2022-10-17T11:32:54.565Z,101498.91
2022-10-17T11:35:26.113Z,101501.31
2022-10-17T11:38:12.085Z,101491.75
2022-10-17T11:40:45.310Z,101493.78
2022-10-17T11:43:17.416Z,101492.81
2022-10-17T11:45:49.666Z,101479.38
2022-10-17T11:48:23.315Z,101473.03
2022-10-17T11:53:53.818Z,101466.59
2022-10-17T11:56:32.774Z,101465.78
2022-10-17T11:59:19.775Z,101464.47
2022-10-17T12:01:52.225Z,101473.00
2022-10-17T12:04:32.047Z,101484.19
2022-10-17T12:07:11.885Z,101494.41
2022-10-17T12:09:46.304Z,101481.22
2022-10-17T12:12:25.984Z,101476.63
2022-10-17T12:14:54.038Z,101518.84
2022-10-17T12:17:32.894Z,101545.16
2022-10-17T12:20:31.525Z,101566.44
2022-10-17T12:23:04.918Z,101574.19
2022-10-17T12:25:35.173Z,101547.53
2022-10-17T12:28:22.693Z,101546.25
2022-10-17T12:30:54.355Z,101550.22
2022-10-17T12:33:26.713Z,101555.59
2022-10-17T12:36:29.987Z,101557.19
2022-10-17T12:39:31.146Z,101574.53
2022-10-17T12:41:59.146Z,101541.56
2022-10-17T12:44:39.028Z,101540.63
2022-10-17T12:47:31.165Z,101549.81
2022-10-17T12:49:59.650Z,101558.03
2022-10-17T12:55:21.003Z,101564.50
2022-10-17T12:57:54.406Z,101569.13
2022-10-17T13:00:30.560Z,101570.88
2022-10-17T13:03:05.315Z,101564.66
2022-10-17T13:05:35.771Z,101571.88
2022-10-17T13:08:07.913Z,101588.94
2022-10-17T13:10:41.794Z,101596.28
2022-10-17T13:13:18.170Z,101595.59
2022-10-17T13:15:49.179Z,101629.84
2022-10-17T13:18:23.858Z,101629.09
2022-10-17T13:20:59.967Z,101616.59
2022-10-17T13:23:31.968Z,101618.44
2022-10-17T13:26:08.170Z,101640.13
2022-10-17T13:28:39.346Z,101614.44
2022-10-17T13:31:27.474Z,101565.19
2022-10-17T13:33:58.536Z,101577.06
2022-10-17T13:36:27.287Z,101556.50
2022-10-17T13:38:55.790Z,101543.09
2022-10-17T13:41:37.016Z,101558.44
2022-10-17T13:44:12.643Z,101566.53
2022-10-17T13:46:42.389Z,101576.56
2022-10-17T13:49:16.721Z,101591.59
2022-10-17T13:51:46.414Z,101592.53
2022-10-17T13:54:40.023Z,101599.81
2022-10-17T13:57:19.313Z,101608.84
2022-10-17T13:59:50.273Z,101617.13
2022-10-17T14:02:21.863Z,101629.69
2022-10-17T14:05:18.149Z,101650.44
2022-10-17T14:10:42.130Z,101638.84
2022-10-17T14:13:22.032Z,101623.72
2022-10-17T14:15:51.167Z,101606.91
2022-10-17T14:18:22.876Z,101602.22
2022-10-17T14:23:43.605Z,101600.25
2022-10-17T14:26:17.296Z,101603.72
2022-10-17T14:28:48.482Z,101605.44
2022-10-17T14:31:26.554Z,101613.41
2022-10-17T14:33:56.073Z,101619.63
2022-10-17T14:36:36.935Z,101617.84
2022-10-17T14:39:11.875Z,101625.94
2022-10-17T14:41:45.488Z,101633.94
2022-10-17T14:44:26.766Z,101634.22
2022-10-17T14:46:59.383Z,101655.50
2022-10-17T14:49:36.097Z,101666.22
2022-10-17T14:52:29.642Z,101660.03
2022-10-17T14:54:59.228Z,101665.41
2022-10-17T14:57:40.957Z,101669.03
2022-10-17T15:00:11.834Z,101668.19
2022-10-17T15:02:39.871Z,101679.88
2022-10-17T15:05:13.239Z,101676.31
2022-10-17T15:07:42.335Z,101679.88
2022-10-17T15:10:32.970Z,101688.91
2022-10-17T15:13:26.815Z,101690.66
2022-10-17T15:15:51.876Z,101699.53
2022-10-17T15:18:20.630Z,101701.50
2022-10-17T15:20:55.467Z,101709.44
2022-10-17T15:23:35.484Z,101722.13
2022-10-17T15:26:03.483Z,101719.50
2022-10-17T15:28:31.800Z,101716.03
2022-10-17T15:30:59.853Z,101725.81
2022-10-17T15:33:27.826Z,101727.63
2022-10-17T15:38:26.270Z,101726.75
2022-10-17T15:40:54.230Z,101727.66
2022-10-17T15:43:22.205Z,101722.34
2022-10-17T15:45:50.310Z,101729.56
2022-10-17T15:48:21.199Z,101734.81
2022-10-17T15:50:49.184Z,101733.94
2022-10-17T15:53:18.625Z,101741.19
2022-10-17T15:55:49.998Z,101737.56
2022-10-17T15:58:19.431Z,101746.59
2022-10-17T16:00:47.890Z,101743.91
2022-10-17T16:03:15.860Z,101742.16
2022-10-17T16:05:43.944Z,101745.78
2022-10-17T16:08:11.935Z,101742.28
2022-10-17T16:10:41.862Z,101742.28
2022-10-17T16:13:17.412Z,101739.63
2022-10-17T16:15:45.394Z,101745.00
2022-10-17T16:18:13.437Z,101748.66
2022-10-17T16:20:41.651Z,101744.22
2022-10-17T16:23:11.888Z,101744.28
2022-10-17T16:25:42.128Z,101747.78
2022-10-17T16:28:11.921Z,101745.25
2022-10-17T16:30:45.024Z,101744.41
2022-10-17T16:33:13.705Z,101754.34
2022-10-17T16:35:41.703Z,101753.41
2022-10-17T16:38:09.657Z,101760.69
2022-10-17T16:40:39.309Z,101758.72
2022-10-17T16:43:08.719Z,101764.44
2022-10-17T16:45:37.280Z,101766.28
2022-10-17T16:48:05.611Z,101768.97
2022-10-17T16:50:35.673Z,101765.53
2022-10-17T16:53:04.142Z,101769.09
2022-10-17T16:55:32.198Z,101776.38
2022-10-17T16:58:01.457Z,101771.97
2022-10-17T17:00:31.042Z,101779.19
2022-10-17T17:02:59.069Z,101783.69
2022-10-17T17:05:27.091Z,101790.88
2022-10-17T17:07:55.886Z,101789.06
2022-10-17T17:10:23.896Z,101791.75
2022-10-17T17:12:51.902Z,101793.66
2022-10-17T17:15:19.907Z,101798.84
2022-10-17T17:17:52.404Z,101801.66
2022-10-17T17:20:23.256Z,101796.47
2022-10-17T17:22:52.237Z,101806.31
2022-10-17T17:25:20.293Z,101809.91
2022-10-17T17:27:48.277Z,101809.97
2022-10-17T17:30:16.729Z,101819.84
2022-10-17T17:32:44.767Z,101813.53
2022-10-17T17:35:14.106Z,101824.31
2022-10-17T17:37:42.108Z,101825.22
2022-10-17T17:40:11.071Z,101817.22
2022-10-17T17:42:39.141Z,101829.69
2022-10-17T17:45:08.197Z,101826.13
2022-10-17T17:47:36.356Z,101835.13
2022-10-17T17:50:04.876Z,101829.69
2022-10-17T17:52:34.323Z,101851.22
2022-10-17T17:55:02.293Z,101844.06
2022-10-17T17:57:30.583Z,101846.78
2022-10-17T17:59:58.513Z,101843.44
2022-10-17T18:02:26.534Z,101853.16
2022-10-17T18:04:54.556Z,101842.47
2022-10-17T18:07:22.576Z,101858.63
2022-10-17T18:09:51.993Z,101852.38
2022-10-17T18:12:20.241Z,101865.84
2022-10-17T18:14:48.905Z,101844.66
2022-10-17T18:17:16.870Z,101850.78
2022-10-17T18:19:44.872Z,101853.50
2022-10-17T18:22:12.876Z,101847.28
2022-10-17T18:24:41.015Z,101858.00
2022-10-17T18:27:12.663Z,101853.72
2022-10-17T18:29:40.629Z,101861.19
2022-10-17T18:32:08.677Z,101864.09
2022-10-17T18:34:36.640Z,101865.13
2022-10-17T18:37:04.655Z,101864.22
2022-10-17T18:39:32.886Z,101869.59
2022-10-17T18:42:00.901Z,101877.78
2022-10-17T18:44:30.511Z,101881.50
2022-10-17T18:47:02.940Z,101887.00
2022-10-17T18:49:32.537Z,101848.75
2022-10-17T18:52:00.703Z,101893.88
2022-10-17T18:54:29.341Z,101902.16
2022-10-17T18:56:57.480Z,101892.31
2022-10-17T18:59:25.491Z,101894.31
2022-10-17T19:01:54.880Z,101888.06
2022-10-17T19:04:23.165Z,101886.34
2022-10-17T19:06:51.109Z,101889.31
2022-10-17T19:09:19.171Z,101886.66
2022-10-17T19:11:47.156Z,101889.47
2022-10-17T19:14:15.143Z,101897.69
2022-10-17T19:16:44.633Z,101901.38
2022-10-17T19:19:15.941Z,101896.97
2022-10-17T19:21:44.580Z,101902.41
2022-10-17T19:24:16.017Z,101900.75
2022-10-17T19:26:45.439Z,101892.88
2022-10-17T19:29:15.266Z,101899.22
2022-10-17T19:31:43.970Z,101894.06
2022-10-17T19:34:14.318Z,101887.25
2022-10-17T19:36:42.784Z,101882.09
2022-10-17T19:39:13.218Z,101897.91
2022-10-17T19:41:41.592Z,101904.25
2022-10-17T19:44:09.794Z,101907.88
2022-10-17T19:46:38.066Z,101913.31
2022-10-17T19:49:06.939Z,101902.66
2022-10-17T19:51:36.402Z,101917.16
2022-10-17T19:54:04.430Z,101922.75
2022-10-17T19:56:36.722Z,101922.91
2022-10-17T19:59:06.029Z,101934.59
2022-10-17T20:01:36.149Z,101941.84
2022-10-17T20:04:04.200Z,101952.72
2022-10-17T20:06:34.177Z,101953.78
2022-10-17T20:09:03.696Z,101957.25
2022-10-17T20:11:31.882Z,101966.34
2022-10-17T20:14:01.794Z,101968.16
2022-10-17T20:16:32.972Z,101969.06
2022-10-17T20:19:06.118Z,101968.34
2022-10-17T20:21:36.598Z,101974.63
2022-10-17T20:24:08.313Z,101981.84
2022-10-17T20:26:38.538Z,101971.16
2022-10-17T20:29:12.961Z,101982.75
2022-10-17T20:31:42.760Z,101987.28
2022-10-17T20:34:13.704Z,101993.63
2022-10-17T20:36:42.337Z,101998.06
2022-10-17T20:39:13.309Z,102005.25
2022-10-17T20:41:41.985Z,102004.41
2022-10-17T20:44:10.285Z,102010.63
2022-10-17T20:46:44.857Z,102014.28
2022-10-17T20:49:22.549Z,102019.56
2022-10-17T20:51:50.506Z,102029.50
2022-10-17T20:54:21.894Z,102015.19
2022-10-17T20:56:49.898Z,102025.91
2022-10-17T20:59:19.052Z,102027.66
2022-10-17T21:01:47.960Z,102029.38
2022-10-17T21:04:46.469Z,102033.00
2022-10-17T21:07:04.135Z,102040.16
2022-10-17T21:09:33.716Z,102030.41
2022-10-17T21:12:03.436Z,102037.44
2022-10-17T21:14:31.895Z,102037.38
2022-10-17T21:17:04.714Z,102033.84
2022-10-17T21:19:33.661Z,102028.50
2022-10-17T21:22:01.666Z,102027.59
2022-10-17T21:24:29.630Z,102024.97
2022-10-17T21:26:58.965Z,102020.59
2022-10-17T21:29:27.083Z,102022.31
2022-10-17T21:31:55.147Z,102025.94
2022-10-17T21:34:25.080Z,102018.75
2022-10-17T21:36:53.361Z,102028.59
2022-10-17T21:39:21.887Z,102025.94
2022-10-17T21:41:49.919Z,102027.72
2022-10-17T21:44:20.916Z,102021.63
2022-10-17T21:46:49.320Z,102028.69
2022-10-17T21:49:19.368Z,102034.94
2022-10-17T21:51:48.475Z,102039.47
2022-10-17T21:54:17.780Z,102036.78
2022-10-17T21:56:45.799Z,102041.31
2022-10-17T21:59:14.003Z,102035.13
2022-10-17T22:01:45.543Z,102040.44
2022-10-17T22:04:15.248Z,102043.19
2022-10-17T22:06:45.373Z,102010.47
2022-10-17T22:09:16.744Z,102045.84
2022-10-17T22:11:46.981Z,102057.44
2022-10-17T22:14:16.569Z,102052.97
2022-10-17T22:16:46.968Z,102060.09
2022-10-17T22:19:17.045Z,102052.00
2022-10-17T22:21:45.334Z,102054.69
2022-10-17T22:24:15.219Z,102060.06
2022-10-17T22:26:44.507Z,102059.09
2022-10-17T22:29:12.966Z,102051.06
2022-10-17T22:31:41.484Z,102056.38
2022-10-17T22:34:13.822Z,102041.34
2022-10-17T22:36:42.288Z,102034.44
2022-10-17T22:39:11.199Z,102060.00
2022-10-17T22:41:39.451Z,102069.00
2022-10-17T22:44:07.891Z,102072.56
2022-10-17T22:46:36.003Z,102065.38
2022-10-17T22:49:04.066Z,102063.53
2022-10-17T22:51:33.545Z,102061.72
2022-10-17T22:54:01.492Z,102070.59
2022-10-17T22:56:29.430Z,102068.81
2022-10-17T22:58:57.460Z,102067.91
2022-10-17T23:01:26.880Z,102064.31
2022-10-17T23:03:55.060Z,102068.88
2022-10-17T23:06:23.109Z,102068.00
2022-10-17T23:08:52.593Z,102075.22
2022-10-17T23:11:21.211Z,102064.50
2022-10-17T23:13:49.532Z,102060.06
2022-10-17T23:16:17.843Z,102064.59
2022-10-17T23:18:45.810Z,102057.50
2022-10-17T23:21:13.959Z,102062.00
2022-10-17T23:23:42.020Z,102068.31
2022-10-17T23:26:14.592Z,102071.03
2022-10-17T23:28:43.320Z,102068.38
2022-10-17T23:31:13.297Z,102064.91
2022-10-17T23:33:42.131Z,102068.38
2022-10-17T23:36:11.128Z,102070.16
2022-10-17T23:38:39.567Z,102063.03
2022-10-17T23:41:07.908Z,102067.56
2022-10-17T23:43:38.033Z,102063.09
2022-10-17T23:46:07.441Z,102063.19
2022-10-17T23:48:36.000Z,102066.75
2022-10-17T23:51:04.427Z,102065.94
2022-10-17T23:53:32.391Z,102073.16
2022-10-17T23:56:00.764Z,102072.22
2022-10-17T23:58:28.864Z,102072.28
